Time;durP1;ratioP1;P1;durP2;ratioP2;P2;SDS_P1;SDS_P2;PMS_P1;PMS_P2;Temp;Humidity;BMP_temperature;BMP_pressure;BME280_temperature;BME280_humidity;BME280_pressure;Samples;Min_cycle;Max_cycle;Signal;HPM_P1;HPM_P2
2022/03/03 00:00:16;;;;;;;29.17;17.05;;;;;;;0.80;70.58;102013.84;5051171;28;20036;-76
2022/03/03 00:02:42;;;;;;;24.38;15.50;;;;;;;0.78;70.31;102016.34;5051086;28;20041;-76
2022/03/03 00:05:08;;;;;;;25.85;16.42;;;;;;;0.76;71.92;102012.00;5050115;28;20025;-76
2022/03/03 00:07:34;;;;;;;25.35;15.68;;;;;;;0.72;70.30;102004.97;5051295;28;20039;-76
2022/03/03 00:10:00;;;;;;;28.77;17.20;;;;;;;0.70;71.86;101999.81;5051648;28;20104;-76
2022/03/03 00:12:25;;;;;;;27.20;16.23;;;;;;;0.69;71.29;102001.50;5049845;28;20055;-76
2022/03/03 00:14:50;;;;;;;29.73;17.75;;;;;;;0.66;71.78;102000.53;5051659;28;20051;-76
2022/03/03 00:17:16;;;;;;;28.67;17.77;;;;;;;0.64;71.55;101994.47;5051039;28;20473;-76
2022/03/03 00:19:42;;;;;;;28.05;16.08;;;;;;;0.59;70.19;102004.56;5051031;28;20492;-76
2022/03/03 00:22:08;;;;;;;26.60;16.63;;;;;;;0.58;72.14;101989.97;5050811;28;20032;-76
2022/03/03 00:24:33;;;;;;;26.10;16.40;;;;;;;0.55;71.55;101992.44;5051619;28;20036;-76
2022/03/03 00:26:58;;;;;;;30.88;16.98;;;;;;;0.50;71.27;101990.53;5050149;28;20035;-76
2022/03/03 00:29:23;;;;;;;26.92;16.30;;;;;;;0.51;72.05;101984.56;5050705;28;20021;-76
2022/03/03 00:31:49;;;;;;;28.38;16.63;;;;;;;0.50;71.85;101995.66;5050696;28;20029;-76
2022/03/03 00:34:14;;;;;;;28.25;16.95;;;;;;;0.45;71.73;101998.06;5050386;28;20386;-76
2022/03/03 00:36:40;;;;;;;26.15;15.73;;;;;;;0.45;71.39;102000.63;5051543;28;20072;-76
2022/03/03 00:39:05;;;;;;;27.95;16.80;;;;;;;0.44;71.98;102001.44;5050831;28;20083;-76
2022/03/03 00:41:31;;;;;;;27.00;16.40;;;;;;;0.41;72.72;101996.19;5049943;28;20041;-76
2022/03/03 00:43:56;;;;;;;26.98;16.63;;;;;;;0.38;72.31;101984.13;5050750;28;20044;-76
2022/03/03 00:46:24;;;;;;;28.95;16.65;;;;;;;0.41;71.53;101991.06;5050501;28;20404;-76
2022/03/03 00:48:50;;;;;;;27.48;16.08;;;;;;;0.41;72.28;101996.19;5051084;28;20037;-76
2022/03/03 00:51:15;;;;;;;28.98;16.25;;;;;;;0.39;71.26;101991.03;5050661;28;20087;-76
2022/03/03 00:53:40;;;;;;;27.83;16.85;;;;;;;0.38;73.35;101996.94;5050157;28;20408;-76
2022/03/03 00:56:06;;;;;;;27.88;16.20;;;;;;;0.34;71.71;101992.53;5050549;28;20075;-76
2022/03/03 00:58:31;;;;;;;31.00;17.85;;;;;;;0.30;71.94;101985.56;5051163;28;20485;-76
2022/03/03 01:00:57;;;;;;;28.75;17.88;;;;;;;0.32;73.81;101990.72;5050089;28;20480;-76
2022/03/03 01:03:22;;;;;;;26.83;16.45;;;;;;;0.26;73.17;101985.38;5050463;28;20104;-76
2022/03/03 01:05:47;;;;;;;30.85;17.90;;;;;;;0.22;72.70;101984.38;5051058;28;20065;-76
2022/03/03 01:08:13;;;;;;;30.17;16.80;;;;;;;0.22;73.94;101987.81;5049981;28;20073;-76
2022/03/03 01:10:39;;;;;;;27.17;17.17;;;;;;;0.16;73.25;101989.28;5050977;28;20084;-76
2022/03/03 01:13:05;;;;;;;29.75;16.60;;;;;;;0.09;72.00;101984.75;5050275;28;20029;-76
2022/03/03 01:15:31;;;;;;;34.55;17.17;;;;;;;0.05;73.11;101985.44;5050266;28;20029;-76
2022/03/03 01:17:56;;;;;;;31.90;17.83;;;;;;;0.01;72.56;101994.72;5051077;28;20373;-73
2022/03/03 01:20:22;;;;;;;25.38;15.82;;;;;;;-0.05;72.87;101979.97;5054126;28;20025;-74
2022/03/03 01:22:47;;;;;;;26.85;16.45;;;;;;;-0.06;72.89;101985.06;5053096;28;20040;-74
2022/03/03 01:25:12;;;;;;;28.33;16.23;;;;;;;-0.09;73.13;101988.38;5054138;28;20043;-74
2022/03/03 01:27:38;;;;;;;27.23;17.58;;;;;;;-0.10;74.58;101985.72;5054646;28;20528;-74
2022/03/03 01:30:05;;;;;;;29.80;17.52;;;;;;;-0.15;74.01;101977.00;5053310;28;20409;-74
2022/03/03 01:32:31;;;;;;;30.45;17.63;;;;;;;-0.15;73.65;101984.69;5053088;28;20037;-73
2022/03/03 01:34:56;;;;;;;26.70;16.95;;;;;;;-0.20;74.28;101975.94;5054173;28;20032;-73
2022/03/03 01:37:22;;;;;;;30.55;16.88;;;;;;;-0.20;73.84;101978.50;5053229;28;20036;-74
2022/03/03 01:39:47;;;;;;;28.13;17.02;;;;;;;-0.28;72.94;101961.16;5054430;28;20472;-74
2022/03/03 01:42:14;;;;;;;28.45;16.98;;;;;;;-0.28;74.69;101967.97;5052575;28;20045;-74
2022/03/03 01:44:44;;;;;;;27.80;17.17;;;;;;;-0.31;73.74;101958.47;5053577;28;20078;-76
2022/03/03 01:47:16;;;;;;;32.83;17.58;;;;;;;-0.36;73.85;101957.44;5053254;28;20033;-76
2022/03/03 01:49:41;;;;;;;31.52;17.63;;;;;;;-0.39;75.50;101952.19;5053120;28;20039;-76
2022/03/03 01:52:06;;;;;;;30.55;17.02;;;;;;;-0.44;74.67;101956.25;5053169;28;20021;-76
2022/03/03 01:54:32;;;;;;;33.20;18.27;;;;;;;-0.46;75.33;101952.72;5054031;28;20406;-76
2022/03/03 01:56:57;;;;;;;31.55;17.20;;;;;;;-0.51;74.81;101952.56;5052758;28;20052;-76
2022/03/03 01:59:23;;;;;;;29.40;17.20;;;;;;;-0.54;75.14;101955.00;5053731;28;20116;-76
2022/03/03 02:01:49;;;;;;;30.20;17.17;;;;;;;-0.60;76.02;101944.50;5052818;28;20037;-76
2022/03/03 02:04:15;;;;;;;30.00;17.65;;;;;;;-0.59;75.78;101946.28;5052664;28;20560;-76
2022/03/03 02:06:40;;;;;;;32.30;18.17;;;;;;;-0.62;75.99;101937.56;5053748;28;20111;-76
2022/03/03 02:09:05;;;;;;;29.55;18.50;;;;;;;-0.63;76.10;101930.72;5053637;28;20075;-76
2022/03/03 02:11:31;;;;;;;27.45;17.15;;;;;;;-0.64;75.97;101931.53;5052401;28;20101;-76
2022/03/03 02:13:58;;;;;;;29.13;17.73;;;;;;;-0.66;75.80;101928.03;5051307;28;20037;-76
2022/03/03 02:16:23;;;;;;;28.90;17.85;;;;;;;-0.66;75.92;101930.59;5053089;28;20099;-76
2022/03/03 02:18:49;;;;;;;32.25;18.75;;;;;;;-0.70;76.93;101924.47;5052623;28;20109;-76
2022/03/03 02:21:15;;;;;;;33.25;18.38;;;;;;;-0.72;75.34;101927.00;5053048;28;20033;-76
2022/03/03 02:23:42;;;;;;;29.85;17.85;;;;;;;-0.72;76.74;101926.09;5039850;28;20026;-76
2022/03/03 02:26:11;;;;;;;32.17;18.92;;;;;;;-0.79;76.86;101914.72;5032393;28;20022;-76
2022/03/03 02:28:37;;;;;;;37.97;18.33;;;;;;;-0.76;76.98;101914.84;5045471;28;20033;-76
2022/03/03 02:31:03;;;;;;;32.90;18.38;;;;;;;-0.79;77.53;101913.88;5052876;28;20079;-76
2022/03/03 02:33:28;;;;;;;31.90;17.80;;;;;;;-0.80;76.89;101924.94;5051748;28;20032;-76
2022/03/03 02:35:53;;;;;;;27.77;17.83;;;;;;;-0.85;76.68;101914.50;5053138;28;20091;-76
2022/03/03 02:38:19;;;;;;;31.88;18.10;;;;;;;-0.86;77.84;101911.88;5052809;28;20029;-76
2022/03/03 02:40:44;;;;;;;32.78;18.25;;;;;;;-0.90;77.06;101905.75;5052004;28;20499;-76
2022/03/03 02:43:09;;;;;;;31.77;17.40;;;;;;;-0.93;77.21;101920.13;5051748;28;20039;-76
2022/03/03 02:45:34;;;;;;;32.70;18.50;;;;;;;-0.95;77.97;101910.72;5053076;28;20025;-76
2022/03/03 02:48:00;;;;;;;30.60;18.88;;;;;;;-0.98;77.49;101917.38;5051478;28;20041;-76
2022/03/03 02:50:25;;;;;;;29.75;18.42;;;;;;;-0.97;78.02;101919.13;5052256;28;20440;-76
2022/03/03 02:52:51;;;;;;;33.00;19.55;;;;;;;-0.99;77.42;101920.75;5051587;28;20033;-75
2022/03/03 02:55:17;;;;;;;34.45;19.08;;;;;;;-1.06;77.86;101903.38;5052707;28;20029;-76
2022/03/03 02:57:54;;;;;;;31.60;17.75;;;;;;;-1.03;77.66;101909.50;5052919;28;20044;-76
2022/03/03 03:00:25;;;;;;;29.67;17.55;;;;;;;-1.05;78.63;101912.81;5050881;28;20385;-76
2022/03/03 03:02:50;;;;;;;31.13;17.75;;;;;;;-1.07;78.74;101910.19;5052181;28;20122;-76
2022/03/03 03:05:15;;;;;;;31.77;18.10;;;;;;;-1.10;77.89;101910.06;5052508;28;20065;-76
2022/03/03 03:07:40;;;;;;;30.20;17.77;;;;;;;-1.14;77.86;101905.66;5052023;28;20543;-76
2022/03/03 03:10:06;;;;;;;34.92;18.40;;;;;;;-1.15;78.10;101914.13;5051638;28;20071;-76
2022/03/03 03:12:32;;;;;;;30.80;17.35;;;;;;;-1.19;78.92;101905.44;5051222;28;20029;-76
2022/03/03 03:14:57;;;;;;;33.60;18.70;;;;;;;-1.17;79.30;101904.66;5051464;28;20025;-76
2022/03/03 03:17:23;;;;;;;30.02;17.88;;;;;;;-1.25;78.74;101897.50;5051834;28;20039;-76
2022/03/03 03:19:48;;;;;;;32.17;18.30;;;;;;;-1.22;79.00;101907.00;5051819;28;20109;-76
2022/03/03 03:22:14;;;;;;;34.05;19.75;;;;;;;-1.19;79.00;101905.44;5050831;28;20032;-76
2022/03/03 03:24:39;;;;;;;33.90;19.27;;;;;;;-1.26;79.64;101895.75;5052514;28;20029;-76
2022/03/03 03:27:04;;;;;;;32.47;18.98;;;;;;;-1.28;79.31;101897.38;5052129;28;20485;-76
2022/03/03 03:29:30;;;;;;;33.95;18.88;;;;;;;-1.24;79.82;101894.16;5051347;28;20079;-75
2022/03/03 03:31:55;;;;;;;30.48;18.40;;;;;;;-1.26;80.79;101893.22;5050678;28;20044;-76
2022/03/03 03:34:20;;;;;;;34.47;18.40;;;;;;;-1.31;79.40;101884.50;5052031;28;20033;-76
2022/03/03 03:36:46;;;;;;;37.85;18.67;;;;;;;-1.35;80.59;101885.16;5051358;28;20037;-76
2022/03/03 03:39:11;;;;;;;33.83;19.10;;;;;;;-1.33;79.38;101891.22;5051215;28;20047;-76
2022/03/03 03:41:36;;;;;;;33.40;19.00;;;;;;;-1.36;79.88;101888.53;5051209;28;20108;-76
2022/03/03 03:44:02;;;;;;;32.53;17.58;;;;;;;-1.37;79.39;101888.44;5050179;28;20503;-76
2022/03/03 03:46:27;;;;;;;33.33;18.73;;;;;;;-1.43;79.81;101884.84;5051254;28;20472;-76
2022/03/03 03:48:52;;;;;;;32.28;18.67;;;;;;;-1.44;80.12;101879.63;5051594;28;20049;-75
2022/03/03 03:51:18;;;;;;;32.55;19.08;;;;;;;-1.44;80.33;101884.75;5050498;28;20035;-75
2022/03/03 03:53:43;;;;;;;31.98;19.40;;;;;;;-1.48;80.11;101882.88;5051737;28;20033;-76
2022/03/03 03:56:08;;;;;;;32.08;17.88;;;;;;;-1.52;80.34;101875.91;5050607;28;20626;-75
2022/03/03 03:58:34;;;;;;;38.40;19.23;;;;;;;-1.54;80.43;101867.28;5051815;28;20036;-75
2022/03/03 04:00:59;;;;;;;33.42;18.40;;;;;;;-1.56;80.16;101872.34;5050732;28;20050;-75
2022/03/03 04:03:25;;;;;;;33.13;18.17;;;;;;;-1.60;80.39;101867.00;5050435;28;20036;-75
2022/03/03 04:05:51;;;;;;;31.90;18.83;;;;;;;-1.61;80.37;101878.06;5051575;28;20512;-76
2022/03/03 04:08:16;;;;;;;36.08;19.67;;;;;;;-1.65;81.68;101877.94;5051401;28;20096;-76
2022/03/03 04:10:42;;;;;;;32.85;18.27;;;;;;;-1.63;81.48;101880.56;5051106;28;20028;-76
2022/03/03 04:13:07;;;;;;;34.25;18.92;;;;;;;-1.68;81.59;101888.03;5050583;28;20033;-76
2022/03/03 04:15:33;;;;;;;36.50;19.08;;;;;;;-1.68;81.50;101892.25;5051531;28;20040;-76
2022/03/03 04:17:58;;;;;;;34.72;19.60;;;;;;;-1.74;81.54;101880.09;5050478;28;20469;-75
2022/03/03 04:20:24;;;;;;;32.90;19.52;;;;;;;-1.79;81.96;101871.34;5051363;28;20108;-75
2022/03/03 04:22:50;;;;;;;31.60;19.30;;;;;;;-1.78;82.47;101872.22;5051237;28;20021;-75
2022/03/03 04:25:15;;;;;;;33.55;18.60;;;;;;;-1.81;81.92;101867.84;5050931;28;20506;-75
2022/03/03 04:27:41;;;;;;;32.10;18.80;;;;;;;-1.83;82.01;101866.94;5051370;28;20117;-75
2022/03/03 04:30:09;;;;;;;36.03;19.20;;;;;;;-1.84;81.71;101866.84;5052190;28;20037;-75
2022/03/03 04:32:36;;;;;;;32.15;18.60;;;;;;;-1.86;82.69;101859.13;5051224;28;20024;-75
2022/03/03 04:35:02;;;;;;;33.20;18.60;;;;;;;-1.88;83.31;101856.50;5052330;28;20049;-76
2022/03/03 04:37:27;;;;;;;32.92;19.27;;;;;;;-1.92;82.98;101846.06;5050749;28;20033;-76
2022/03/03 04:39:53;;;;;;;33.38;19.10;;;;;;;-1.91;82.75;101855.47;5050527;28;20526;-76
2022/03/03 04:42:18;;;;;;;36.05;19.30;;;;;;;-1.93;83.02;101852.88;5050016;28;20021;-75
2022/03/03 04:44:43;;;;;;;34.25;18.80;;;;;;;-1.95;83.29;101853.63;5051482;28;20029;-75
2022/03/03 04:47:09;;;;;;;34.00;18.80;;;;;;;-1.93;83.36;101849.41;5050064;28;20385;-76
2022/03/03 04:49:34;;;;;;;35.33;20.58;;;;;;;-1.94;82.91;101845.13;5051168;28;20061;-75
2022/03/03 04:52:00;;;;;;;35.10;19.23;;;;;;;-1.95;82.37;101835.72;5051471;28;20481;-76
2022/03/03 04:54:25;;;;;;;32.03;18.23;;;;;;;-2.05;82.42;101821.66;5053588;28;20032;-76
2022/03/03 04:56:52;;;;;;;35.58;18.45;;;;;;;-2.06;82.43;101835.25;5055316;28;20389;-75
2022/03/03 04:59:18;;;;;;;34.67;18.92;;;;;;;-2.06;83.11;101834.38;5054380;28;20115;-75
2022/03/03 05:01:43;;;;;;;36.63;19.80;;;;;;;-2.08;82.99;101836.00;5054249;28;20119;-75
2022/03/03 05:04:08;;;;;;;34.30;19.58;;;;;;;-2.08;83.41;101841.97;5054174;28;20120;-75
2022/03/03 05:06:33;;;;;;;33.30;19.00;;;;;;;-2.14;83.08;101837.47;5054047;28;20013;-75
2022/03/03 05:08:59;;;;;;;32.97;18.08;;;;;;;-2.10;83.97;101848.69;5054734;28;20033;-75
2022/03/03 05:11:24;;;;;;;34.10;19.38;;;;;;;-2.11;83.36;101844.41;5054585;28;20044;-76
2022/03/03 05:13:49;;;;;;;33.70;18.98;;;;;;;-2.14;83.81;101847.69;5053735;28;20045;-76
2022/03/03 05:16:15;;;;;;;35.25;18.48;;;;;;;-2.14;83.35;101845.13;5055025;28;20025;-76
2022/03/03 05:18:40;;;;;;;34.30;18.42;;;;;;;-2.14;83.76;101841.69;5055147;28;20025;-75
2022/03/03 05:21:06;;;;;;;30.55;18.30;;;;;;;-2.16;83.70;101853.53;5053882;28;20021;-76
2022/03/03 05:23:31;;;;;;;30.95;18.05;;;;;;;-2.22;83.81;101843.06;5053895;28;20303;-76
2022/03/03 05:25:56;;;;;;;32.00;18.52;;;;;;;-2.19;83.59;101851.72;5054299;28;20039;-76
2022/03/03 05:28:21;;;;;;;35.45;18.10;;;;;;;-2.24;83.67;101837.00;5053529;28;20094;-75
2022/03/03 05:30:47;;;;;;;33.78;19.08;;;;;;;-2.24;83.71;101844.66;5054120;28;20036;-76
2022/03/03 05:33:12;;;;;;;31.52;18.63;;;;;;;-2.27;84.09;101845.38;5053416;28;20154;-75
2022/03/03 05:35:40;;;;;;;30.60;17.67;;;;;;;-2.24;84.39;101849.78;5053511;28;20061;-75
2022/03/03 05:38:05;;;;;;;34.85;18.67;;;;;;;-2.27;83.97;101847.94;5054301;28;20018;-75
2022/03/03 05:40:31;;;;;;;32.65;18.63;;;;;;;-2.27;84.19;101841.97;5054076;28;20035;-75
2022/03/03 05:42:56;;;;;;;33.20;18.20;;;;;;;-2.28;84.13;101856.41;5052428;28;20033;-76
2022/03/03 05:45:21;;;;;;;30.75;17.55;;;;;;;-2.34;84.66;101848.47;5053930;28;20037;-75
2022/03/03 05:47:48;;;;;;;32.47;18.20;;;;;;;-2.32;84.77;101859.66;5053856;28;20041;-76
2022/03/03 05:50:13;;;;;;;32.65;17.67;;;;;;;-2.35;84.39;101862.06;5053026;28;20487;-75
2022/03/03 05:52:38;;;;;;;36.50;18.58;;;;;;;-2.40;84.44;101851.63;5053390;28;20108;-75
2022/03/03 05:55:05;;;;;;;32.80;19.15;;;;;;;-2.36;85.75;101862.84;5053888;28;20017;-75
2022/03/03 05:57:32;;;;;;;34.58;18.58;;;;;;;-2.37;85.21;101858.56;5052831;28;20057;-75
2022/03/03 06:00:02;;;;;;;34.47;19.40;;;;;;;-2.44;86.38;101843.78;5053502;28;20025;-75
2022/03/03 06:02:27;;;;;;;33.30;18.83;;;;;;;-2.42;86.00;101848.16;5052664;28;20436;-75
2022/03/03 06:04:53;;;;;;;34.05;18.83;;;;;;;-2.47;85.42;101847.06;5052105;28;20025;-75
2022/03/03 06:07:26;;;;;;;33.05;19.40;;;;;;;-2.45;85.93;101849.69;5053201;28;20029;-75
2022/03/03 06:09:55;;;;;;;35.50;17.90;;;;;;;-2.49;85.92;101840.13;5052544;28;20029;-75
2022/03/03 06:12:30;;;;;;;35.15;17.80;;;;;;;-2.55;86.07;101834.72;5052664;28;20060;-75
2022/03/03 06:15:02;;;;;;;31.42;18.13;;;;;;;-2.52;86.36;101845.94;5053538;28;20056;-75
2022/03/03 06:17:29;;;;;;;35.00;19.00;;;;;;;-2.54;86.43;101839.91;5052645;28;20032;-75
2022/03/03 06:19:58;;;;;;;39.17;18.05;;;;;;;-2.55;86.53;101835.63;5053266;28;20032;-75
2022/03/03 06:22:23;;;;;;;36.38;18.25;;;;;;;-2.60;85.92;101835.41;5052507;28;20489;-75
2022/03/03 06:24:49;;;;;;;33.35;18.75;;;;;;;-2.51;86.47;101841.75;5051558;28;20033;-75
2022/03/03 06:27:15;;;;;;;31.42;18.40;;;;;;;-2.51;86.38;101836.63;5053337;28;20052;-75
2022/03/03 06:29:40;;;;;;;38.72;18.95;;;;;;;-2.53;86.49;101836.56;5053080;28;20021;-75
2022/03/03 06:32:06;;;;;;;35.70;19.40;;;;;;;-2.50;86.20;101835.81;5052022;28;20040;-75
2022/03/03 06:34:32;;;;;;;35.70;18.45;;;;;;;-2.49;86.51;101853.75;5052875;28;20040;-76
2022/03/03 06:36:57;;;;;;;34.58;18.95;;;;;;;-2.49;86.24;101852.88;5052642;28;20021;-75
2022/03/03 06:39:23;;;;;;;34.88;18.67;;;;;;;-2.51;85.22;101849.41;5052078;28;20036;-75
2022/03/03 06:41:48;;;;;;;33.58;17.75;;;;;;;-2.46;85.97;101853.91;5052561;28;20021;-75
2022/03/03 06:44:14;;;;;;;30.50;17.77;;;;;;;-2.45;85.03;101844.59;5053045;28;20039;-75
2022/03/03 06:46:39;;;;;;;31.27;17.73;;;;;;;-2.40;85.31;101853.31;5052181;28;20013;-75
2022/03/03 06:49:05;;;;;;;35.15;18.20;;;;;;;-2.40;85.13;101854.19;5052954;28;20067;-75
2022/03/03 06:51:39;;;;;;;33.28;18.30;;;;;;;-2.36;84.98;101862.84;5052082;28;20378;-75
2022/03/03 06:54:06;;;;;;;35.13;17.95;;;;;;;-2.28;83.97;101864.09;5052012;28;20025;-75
2022/03/03 06:56:35;;;;;;;33.47;18.48;;;;;;;-2.20;84.59;101865.28;5052800;28;20221;-75
2022/03/03 06:59:01;;;;;;;37.42;19.58;;;;;;;-2.13;83.48;101859.66;5051872;28;20037;-75
2022/03/03 07:01:29;;;;;;;31.55;18.55;;;;;;;-2.02;83.32;101872.03;5051824;28;20397;-76
2022/03/03 07:03:57;;;;;;;31.02;17.73;;;;;;;-1.99;82.97;101861.97;5052427;28;20029;-75
2022/03/03 07:06:22;;;;;;;34.80;19.15;;;;;;;-1.93;83.17;101862.19;5051144;28;20489;-75
2022/03/03 07:08:53;;;;;;;34.50;18.30;;;;;;;-1.86;82.37;101879.56;5052505;28;20044;-75
2022/03/03 07:11:18;;;;;;;34.80;17.55;;;;;;;-1.77;81.14;101876.53;5051876;28;20033;-75
2022/03/03 07:13:44;;;;;;;32.03;18.83;;;;;;;-1.74;82.03;101885.19;5051541;28;20491;-75
2022/03/03 07:16:44;;;;;;;35.17;18.85;;;;;;;-1.65;81.17;101879.63;5050689;28;20028;-76
2022/03/03 07:19:39;;;;;;;29.70;17.35;;;;;;;-1.58;81.17;101884.19;5032598;28;20053;-75
2022/03/03 07:22:09;;;;;;;;;;;;;;;-1.53;81.21;101874.16;5047740;28;20167;-76
2022/03/03 07:24:45;;;;;;;28.60;17.33;;;;;;;-1.47;80.74;101869.31;5052097;28;19916;-76
2022/03/03 07:27:18;;;;;;;31.25;17.50;;;;;;;-1.41;80.09;101874.66;5051044;28;20037;-75
2022/03/03 07:29:47;;;;;;;31.13;17.13;;;;;;;-1.32;79.54;101877.59;5052172;28;20029;-75
2022/03/03 07:32:17;;;;;;;30.40;17.27;;;;;;;-1.23;78.84;101875.44;5051057;28;20033;-76
2022/03/03 07:34:49;;;;;;;31.13;17.65;;;;;;;-1.15;78.16;101883.41;5045944;28;20062;-75
2022/03/03 07:37:18;;;;;;;32.03;17.80;;;;;;;-1.06;78.39;101882.91;5049224;28;20040;-76
2022/03/03 07:39:44;;;;;;;32.65;18.13;;;;;;;-0.97;77.91;101878.16;5050495;28;20024;-76
2022/03/03 07:42:15;;;;;;;32.85;17.17;;;;;;;-0.89;77.19;101881.91;5050934;28;20499;-76
2022/03/03 07:44:41;;;;;;;32.63;17.70;;;;;;;-0.78;77.22;101879.78;5051272;28;20064;-76
2022/03/03 07:47:09;;;;;;;32.92;17.17;;;;;;;-0.68;77.18;101886.13;5051703;28;20143;-77
2022/03/03 07:49:35;;;;;;;31.30;17.10;;;;;;;-0.61;76.86;101878.75;5051021;28;20040;-76
2022/03/03 07:52:05;;;;;;;32.78;16.75;;;;;;;-0.54;76.62;101869.59;5051327;28;20024;-76
2022/03/03 07:54:31;;;;;;;32.58;17.95;;;;;;;-0.44;75.71;101876.81;5054126;28;20082;-76
2022/03/03 07:56:58;;;;;;;28.88;17.20;;;;;;;-0.35;75.95;101874.63;5050651;28;20081;-76
2022/03/03 07:59:27;;;;;;;29.42;17.70;;;;;;;-0.25;75.33;101880.94;5051368;28;20120;-76
2022/03/03 08:01:54;;;;;;;31.67;16.77;;;;;;;-0.17;74.56;101881.22;5051511;28;20033;-76
2022/03/03 08:04:27;;;;;;;32.17;17.77;;;;;;;-0.15;74.40;101869.34;5053175;28;20033;-76
2022/03/03 08:06:55;;;;;;;31.83;17.95;;;;;;;-0.06;74.68;101870.56;5052070;28;20484;-81
2022/03/03 08:09:23;;;;;;;33.35;17.42;;;;;;;0.03;74.22;101877.69;5050120;28;20060;-75
2022/03/03 08:11:51;;;;;;;29.98;17.38;;;;;;;0.13;73.32;101886.59;5062830;28;20036;-77
2022/03/03 08:14:17;;;;;;;30.70;17.10;;;;;;;0.20;73.84;101881.75;5051005;28;20480;-77
2022/03/03 08:16:45;;;;;;;32.92;17.83;;;;;;;0.30;73.21;101880.38;5050545;28;20037;-76
2022/03/03 08:19:10;;;;;;;31.25;17.70;;;;;;;0.38;73.40;101875.50;5051569;28;20060;-77
2022/03/03 08:21:37;;;;;;;33.15;18.00;;;;;;;0.46;73.04;101868.97;5051346;28;20059;-77
2022/03/03 08:24:02;;;;;;;28.60;17.38;;;;;;;0.59;72.86;101878.81;5050849;28;20052;-77
2022/03/03 08:26:29;;;;;;;33.03;17.40;;;;;;;0.67;71.14;101866.25;5051235;28;20562;-77
2022/03/03 08:28:55;;;;;;;31.90;17.13;;;;;;;0.79;71.33;101865.78;5054767;28;20112;-76
2022/03/03 08:31:28;;;;;;;28.67;16.42;;;;;;;0.88;70.76;101866.97;5054650;28;20108;-76
2022/03/03 08:34:02;;;;;;;27.77;17.00;;;;;;;0.99;71.15;101874.13;5054976;28;20126;-76
2022/03/03 08:36:37;;;;;;;29.42;16.42;;;;;;;1.05;70.14;101862.38;5055355;28;20056;-76
2022/03/03 08:39:06;;;;;;;27.90;17.02;;;;;;;1.15;69.63;101861.81;5054840;28;20098;-76
2022/03/03 08:41:37;;;;;;;26.98;15.95;;;;;;;1.26;68.97;101863.84;5055136;28;20017;-76
2022/03/03 08:44:04;;;;;;;29.98;16.00;;;;;;;1.42;68.53;101873.78;5055279;28;20037;-76
2022/03/03 08:46:32;;;;;;;30.83;16.95;;;;;;;1.50;68.26;101864.56;5054303;28;20059;-76
2022/03/03 08:48:59;;;;;;;28.98;16.25;;;;;;;1.64;66.87;101867.59;5054780;28;20048;-76
2022/03/03 08:51:25;;;;;;;26.42;15.40;;;;;;;1.77;66.70;101876.53;5055110;28;20029;-76
2022/03/03 08:53:51;;;;;;;28.23;15.98;;;;;;;1.90;67.19;101870.00;5054090;28;20040;-76
2022/03/03 08:56:17;;;;;;;30.02;16.23;;;;;;;1.97;65.34;101861.66;5054937;28;20017;-75
2022/03/03 08:58:42;;;;;;;25.25;15.43;;;;;;;2.10;65.05;101861.16;5053055;28;20094;-76
2022/03/03 09:01:08;;;;;;;27.70;15.23;;;;;;;2.16;64.78;101863.03;5051323;28;20079;-75
2022/03/03 09:03:33;;;;;;;28.67;15.10;;;;;;;2.29;62.96;101866.00;5054931;28;20425;-77
2022/03/03 09:06:00;;;;;;;27.55;15.68;;;;;;;2.46;63.91;101874.16;5054083;28;20029;-77
2022/03/03 09:08:25;;;;;;;26.23;14.40;;;;;;;2.55;62.14;101871.81;5053222;28;20030;-76
2022/03/03 09:10:50;;;;;;;26.98;14.88;;;;;;;2.66;62.43;101866.94;5054634;28;20546;-76
2022/03/03 09:13:16;;;;;;;26.10;14.98;;;;;;;2.77;60.35;101869.78;5053760;28;20442;-76
2022/03/03 09:15:42;;;;;;;27.38;14.60;;;;;;;2.95;61.25;101865.09;5054434;28;20044;-76
2022/03/03 09:18:08;;;;;;;26.10;14.85;;;;;;;3.08;60.23;101873.13;5054955;28;20100;-76
2022/03/03 09:20:34;;;;;;;27.33;15.23;;;;;;;3.20;60.35;101870.81;5048715;28;20536;-76
2022/03/03 09:23:00;;;;;;;28.52;15.73;;;;;;;3.33;60.67;101867.66;5052070;28;20029;-76
2022/03/03 09:25:26;;;;;;;24.67;15.00;;;;;;;3.43;59.90;101856.75;5054226;28;20017;-76
2022/03/03 09:27:51;;;;;;;26.25;15.70;;;;;;;3.56;59.12;101857.00;5052949;28;20050;-76
2022/03/03 09:30:18;;;;;;;24.45;14.90;;;;;;;3.60;58.08;101851.09;5053890;28;20029;-76
2022/03/03 09:32:43;;;;;;;25.50;14.70;;;;;;;3.74;58.03;101852.22;5054301;28;20047;-76
2022/03/03 09:35:09;;;;;;;24.02;13.63;;;;;;;3.80;56.99;101838.59;5052979;28;20465;-76
2022/03/03 09:37:35;;;;;;;25.45;14.27;;;;;;;3.90;56.89;101848.25;5053287;28;20112;-76
2022/03/03 09:40:00;;;;;;;24.80;14.90;;;;;;;4.01;58.54;101853.63;5052747;28;20108;-77
2022/03/03 09:42:34;;;;;;;27.23;15.15;;;;;;;4.09;56.76;101841.75;5053248;28;20100;-76
2022/03/03 09:45:00;;;;;;;27.92;14.57;;;;;;;4.20;56.28;101845.41;5053636;28;20036;-77
2022/03/03 09:47:26;;;;;;;26.67;15.07;;;;;;;4.30;56.05;101846.44;5053382;28;20037;-77
2022/03/03 09:49:51;;;;;;;29.10;15.13;;;;;;;4.37;55.83;101831.06;5053074;28;20118;-77
2022/03/03 09:52:18;;;;;;;24.45;14.88;;;;;;;4.46;55.13;101832.97;5053874;28;20031;-77
2022/03/03 09:54:48;;;;;;;22.63;14.25;;;;;;;4.57;54.76;101835.72;5053785;28;20028;-77
2022/03/03 09:57:15;;;;;;;23.17;13.95;;;;;;;4.67;54.25;101837.63;5052849;28;20029;-76
2022/03/03 09:59:41;;;;;;;27.63;14.50;;;;;;;4.77;54.39;101839.50;5053931;28;20024;-77
2022/03/03 10:02:07;;;;;;;24.90;14.32;;;;;;;4.86;54.87;101834.47;5053157;28;20389;-77
2022/03/03 10:04:33;;;;;;;22.42;13.95;;;;;;;4.89;53.98;101837.13;5054953;28;20033;-76
2022/03/03 10:07:06;;;;;;;27.42;15.57;;;;;;;5.04;54.60;101838.22;5059259;28;20424;-77
2022/03/03 10:09:32;;;;;;;;;;;;;;;5.07;56.62;101835.69;5053268;28;20036;-76
2022/03/03 10:12:06;;;;;;;23.98;14.57;;;;;;;5.17;54.02;101840.13;5053481;28;19917;-77
2022/03/03 10:14:34;;;;;;;22.55;13.93;;;;;;;5.30;53.22;101831.72;5058686;28;20492;-76
2022/03/03 10:17:00;;;;;;;23.33;14.10;;;;;;;5.38;53.15;101824.91;5052801;28;20107;-76
2022/03/03 10:19:25;;;;;;;30.05;14.38;;;;;;;5.43;52.81;101832.75;5053407;28;20105;-76
2022/03/03 10:21:51;;;;;;;24.52;14.25;;;;;;;5.49;51.08;101832.81;5061348;28;20456;-77
2022/03/03 10:24:24;;;;;;;24.50;14.13;;;;;;;5.59;52.39;101836.38;5069977;28;20078;-77
2022/03/03 10:27:04;;;;;;;22.70;13.48;;;;;;;5.66;50.84;101829.56;5054566;28;20123;-78
2022/03/03 10:29:30;;;;;;;19.30;12.10;;;;;;;5.83;48.90;101828.94;5073350;28;20063;-77
2022/03/03 10:31:57;;;;;;;20.60;13.30;;;;;;;5.89;49.20;101822.97;5067626;28;20021;-77
2022/03/03 10:34:28;;;;;;;20.13;12.35;;;;;;;6.04;48.80;101817.13;5059085;28;20033;-76
2022/03/03 10:37:09;;;;;;;21.13;12.85;;;;;;;6.14;49.68;101818.09;5049879;28;20079;-77
2022/03/03 10:39:42;;;;;;;22.63;13.60;;;;;;;6.18;49.45;101797.44;5053348;28;20036;-77
2022/03/03 10:42:22;;;;;;;19.80;12.68;;;;;;;6.41;48.29;101805.41;5052410;28;20032;-76
2022/03/03 10:44:49;;;;;;;20.63;12.65;;;;;;;6.53;46.28;101804.66;5050679;28;20043;-77
2022/03/03 10:47:21;;;;;;;20.95;13.05;;;;;;;6.67;45.94;101813.41;5052151;28;20039;-77
2022/03/03 10:49:49;;;;;;;21.15;13.30;;;;;;;6.77;46.38;101804.84;5057924;28;20107;-77
2022/03/03 10:52:17;;;;;;;21.25;13.32;;;;;;;6.86;47.17;101808.34;5059923;28;20453;-76
2022/03/03 10:55:00;;;;;;;20.13;13.00;;;;;;;6.93;46.37;101800.66;5052507;28;20374;-77
2022/03/03 10:57:39;;;;;;;19.38;12.95;;;;;;;7.05;44.77;101807.63;5049946;28;20033;-77
2022/03/03 11:00:07;;;;;;;18.10;11.90;;;;;;;7.13;43.04;101808.56;5052105;28;20459;-77
2022/03/03 11:02:34;;;;;;;20.08;12.65;;;;;;;7.19;41.86;101808.59;5059494;28;20040;-78
2022/03/03 11:05:00;;;;;;;18.45;11.98;;;;;;;7.30;43.67;101797.41;5072496;28;20040;-78
2022/03/03 11:07:25;;;;;;;19.42;12.13;;;;;;;7.34;43.10;101802.63;5068829;28;20013;-77
2022/03/03 11:09:51;;;;;;;20.58;12.85;;;;;;;7.47;43.42;101795.75;5056632;28;20044;-77